createdAt,value
2022-12-19T00:02:25.814Z,101264.84
2022-12-19T00:04:52.200Z,101266.88
2022-12-19T00:07:18.530Z,101264.63
2022-12-19T00:09:44.844Z,101253.56
2022-12-19T00:12:15.885Z,101252.94
2022-12-19T00:14:43.827Z,101242.09
2022-12-19T00:17:10.146Z,101244.94
2022-12-19T00:19:36.768Z,101245.56
2022-12-19T00:22:07.103Z,101237.81
2022-12-19T00:24:36.026Z,101244.75
2022-12-19T00:27:02.358Z,101240.66
2022-12-19T00:29:28.684Z,101236.97
2022-12-19T00:31:55.056Z,101233.31
2022-12-19T00:34:21.570Z,101239.84
2022-12-19T00:36:47.892Z,101230.88
2022-12-19T00:39:14.229Z,101219.75
2022-12-19T00:41:42.583Z,101222.00
2022-12-19T00:44:14.243Z,101216.50
2022-12-19T00:46:41.511Z,101211.16
2022-12-19T00:49:08.406Z,101212.41
2022-12-19T00:51:36.659Z,101209.09
2022-12-19T00:54:05.297Z,101202.22
2022-12-19T00:56:37.529Z,101195.22
2022-12-19T00:59:05.005Z,101209.16
2022-12-19T01:01:35.132Z,101194.84
2022-12-19T01:06:49.417Z,101181.31
2022-12-19T01:09:15.842Z,101182.94
2022-12-19T01:11:42.249Z,101186.88
2022-12-19T01:14:09.524Z,101178.69
2022-12-19T01:16:35.887Z,101170.25
2022-12-19T01:19:02.241Z,101165.75
2022-12-19T01:21:31.495Z,101168.84
2022-12-19T01:23:57.796Z,101164.72
2022-12-19T01:26:24.150Z,101164.75
2022-12-19T01:28:50.497Z,101172.94
2022-12-19T01:31:16.866Z,101166.16
2022-12-19T01:33:45.562Z,101173.34
2022-12-19T01:36:11.890Z,101170.28
2022-12-19T01:38:38.226Z,101163.28
2022-12-19T01:41:05.354Z,101155.91
2022-12-19T01:43:53.089Z,101148.56
2022-12-19T01:46:24.773Z,101142.81
2022-12-19T01:48:54.432Z,101148.97
2022-12-19T01:51:25.067Z,101146.50
2022-12-19T01:53:54.200Z,101139.94
2022-12-19T01:56:26.182Z,101144.88
2022-12-19T01:59:05.554Z,101142.84
2022-12-19T02:01:34.648Z,101134.59
2022-12-19T02:04:02.269Z,101137.09
2022-12-19T02:06:30.406Z,101130.13
2022-12-19T02:08:57.174Z,101119.84
2022-12-19T02:11:23.554Z,101116.97
2022-12-19T02:13:49.953Z,101109.59
2022-12-19T02:16:31.467Z,101110.41
2022-12-19T02:19:04.305Z,101115.34
2022-12-19T02:21:44.316Z,101109.38
2022-12-19T02:24:46.643Z,101096.25
2022-12-19T02:27:18.885Z,101088.66
2022-12-19T02:30:16.123Z,101083.72
2022-12-19T02:32:54.711Z,101075.50
2022-12-19T02:35:30.065Z,101077.94
2022-12-19T02:38:13.282Z,101071.78
2022-12-19T02:40:55.398Z,101070.13
2022-12-19T02:43:23.773Z,101079.56
2022-12-19T02:45:51.703Z,101076.88
2022-12-19T02:48:19.958Z,101076.66
2022-12-19T02:50:47.948Z,101078.09
2022-12-19T02:53:17.260Z,101079.03
2022-12-19T02:56:11.484Z,101074.34
2022-12-19T02:59:01.849Z,101073.69
2022-12-19T03:01:34.384Z,101069.16
2022-12-19T03:04:13.373Z,101068.59
2022-12-19T03:07:02.627Z,101061.75
2022-12-19T03:09:37.283Z,101056.81
2022-12-19T03:12:17.161Z,101055.16
2022-12-19T03:14:46.877Z,101060.53
2022-12-19T03:17:13.246Z,101054.75
2022-12-19T03:19:41.021Z,101060.28
2022-12-19T03:22:08.101Z,101056.78
2022-12-19T03:24:34.507Z,101052.25
2022-12-19T03:27:11.144Z,101037.22
2022-12-19T03:29:43.007Z,101030.19
2022-12-19T03:32:13.058Z,101034.03
2022-12-19T03:34:47.859Z,101022.97
2022-12-19T03:37:19.733Z,101011.81
2022-12-19T03:39:51.549Z,101021.44
2022-12-19T03:42:19.738Z,101013.69
2022-12-19T03:44:50.034Z,101029.91
2022-12-19T03:47:39.052Z,101018.41
2022-12-19T03:50:07.594Z,101016.59
2022-12-19T03:52:41.619Z,101011.56
2022-12-19T03:55:19.020Z,101006.66
2022-12-19T03:57:57.140Z,101008.53
2022-12-19T04:00:25.146Z,100987.66
2022-12-19T04:02:55.713Z,100990.44
2022-12-19T04:05:25.131Z,100981.81
2022-12-19T04:07:56.151Z,100971.91
2022-12-19T04:10:26.159Z,100957.06
2022-12-19T04:13:01.092Z,100962.41
2022-12-19T04:16:06.427Z,100950.91
2022-12-19T04:18:33.685Z,100945.94
2022-12-19T04:21:11.271Z,100952.88
2022-12-19T04:23:45.012Z,100938.19
2022-12-19T04:26:13.593Z,100927.56
2022-12-19T04:28:52.754Z,100931.81
2022-12-19T04:31:20.873Z,100927.56
2022-12-19T04:33:47.340Z,100924.94
2022-12-19T04:36:13.736Z,100927.63
2022-12-19T04:38:40.282Z,100938.63
2022-12-19T04:41:06.797Z,100936.81
2022-12-19T04:43:33.152Z,100938.41
2022-12-19T04:45:59.993Z,100939.06
2022-12-19T04:48:26.413Z,100940.09
2022-12-19T04:50:52.803Z,100930.03
2022-12-19T04:53:19.282Z,100927.19
2022-12-19T04:55:45.614Z,100914.53
2022-12-19T04:58:11.974Z,100921.06
2022-12-19T05:00:38.620Z,100907.56
2022-12-19T05:03:05.086Z,100899.81
2022-12-19T05:05:31.589Z,100904.91
2022-12-19T05:07:57.922Z,100897.63
2022-12-19T05:10:24.305Z,100887.13
2022-12-19T05:12:50.634Z,100883.19
2022-12-19T05:15:17.170Z,100880.41
2022-12-19T05:17:43.478Z,100875.88
2022-12-19T05:20:10.297Z,100871.09
2022-12-19T05:22:36.648Z,100867.81
2022-12-19T05:25:03.071Z,100869.16
2022-12-19T05:27:29.402Z,100870.84
2022-12-19T05:29:55.739Z,100872.50
2022-12-19T05:32:22.176Z,100869.84
2022-12-19T05:34:48.494Z,100861.94
2022-12-19T05:37:14.847Z,100856.41
2022-12-19T05:39:41.151Z,100853.72
2022-12-19T05:42:12.178Z,100849.13
2022-12-19T05:44:38.911Z,100846.53
2022-12-19T05:47:05.418Z,100836.22
2022-12-19T05:49:31.783Z,100843.69
2022-12-19T05:51:58.119Z,100846.16
2022-12-19T05:54:25.674Z,100848.22
2022-12-19T05:56:52.115Z,100839.41
2022-12-19T05:59:18.465Z,100850.50
2022-12-19T06:01:44.909Z,100848.84
2022-12-19T06:04:11.307Z,100854.25
2022-12-19T06:06:37.630Z,100844.81
2022-12-19T06:09:04.011Z,100843.97
2022-12-19T06:11:30.369Z,100845.50
2022-12-19T06:13:56.729Z,100846.63
2022-12-19T06:16:23.735Z,100842.09
2022-12-19T06:18:50.196Z,100847.38
2022-12-19T06:21:19.290Z,100840.31
2022-12-19T06:23:46.267Z,100847.88
2022-12-19T06:26:19.574Z,100843.81
2022-12-19T06:28:47.777Z,100830.53
2022-12-19T06:31:14.715Z,100828.00
2022-12-19T06:33:41.293Z,100830.25
2022-12-19T06:36:16.496Z,100831.28
2022-12-19T06:38:42.915Z,100831.28
2022-12-19T06:41:10.317Z,100839.00
2022-12-19T06:43:36.731Z,100832.41
2022-12-19T06:46:03.206Z,100846.34
2022-12-19T06:48:29.638Z,100838.66
2022-12-19T06:50:55.968Z,100855.31
2022-12-19T06:53:22.479Z,100845.69
2022-12-19T06:55:52.281Z,100836.72
2022-12-19T06:58:23.969Z,100840.91
2022-12-19T07:00:51.164Z,100850.06
2022-12-19T07:03:23.198Z,100841.09
2022-12-19T07:05:49.913Z,100847.25
2022-12-19T07:08:16.462Z,100841.09
2022-12-19T07:10:42.822Z,100837.03
2022-12-19T07:13:09.168Z,100846.44
2022-12-19T07:15:36.290Z,100850.88
2022-12-19T07:18:05.444Z,100848.81
2022-12-19T07:20:34.378Z,100858.56
2022-12-19T07:23:03.107Z,100849.25
2022-12-19T07:25:29.480Z,100842.13
2022-12-19T07:27:56.349Z,100844.81
2022-12-19T07:30:22.711Z,100847.16
2022-12-19T07:32:49.164Z,100841.34
2022-12-19T07:35:15.522Z,100846.38
2022-12-19T07:37:41.910Z,100838.47
2022-12-19T07:40:08.851Z,100845.44
2022-12-19T07:42:35.161Z,100845.81
2022-12-19T07:45:01.592Z,100842.22
2022-12-19T07:47:28.045Z,100841.63
2022-12-19T07:49:54.375Z,100839.63
2022-12-19T07:52:20.699Z,100841.41
2022-12-19T07:54:47.056Z,100845.72
2022-12-19T07:57:13.419Z,100841.31
2022-12-19T07:59:39.735Z,100852.06
2022-12-19T08:02:06.712Z,100847.50
2022-12-19T08:04:34.504Z,100852.06
2022-12-19T08:07:00.921Z,100854.13
2022-12-19T08:09:27.231Z,100861.16
2022-12-19T08:11:54.668Z,100841.97
2022-12-19T08:14:21.095Z,100844.50
2022-12-19T08:17:18.566Z,100846.94
2022-12-19T08:19:33.749Z,100843.59
2022-12-19T08:22:00.139Z,100842.31
2022-12-19T08:24:26.512Z,100842.81
2022-12-19T08:26:52.835Z,100846.28
2022-12-19T08:29:19.176Z,100850.38
2022-12-19T08:31:45.508Z,100848.84
2022-12-19T08:34:11.844Z,100848.28
2022-12-19T08:36:38.167Z,100844.69
2022-12-19T08:39:04.690Z,100843.97
2022-12-19T08:41:31.072Z,100843.16
2022-12-19T08:43:57.725Z,100839.06
2022-12-19T08:46:24.528Z,100832.91
2022-12-19T08:48:51.062Z,100837.94
2022-12-19T08:51:17.680Z,100838.63
2022-12-19T08:53:45.675Z,100840.50
2022-12-19T08:56:17.678Z,100837.13
2022-12-19T08:58:44.416Z,100833.03
2022-12-19T09:01:14.326Z,100830.84
2022-12-19T09:04:00.004Z,100826.75
2022-12-19T09:06:27.614Z,100821.97
2022-12-19T09:08:54.026Z,100823.47
2022-12-19T09:11:26.733Z,100832.91
2022-12-19T09:13:56.424Z,100824.06
2022-12-19T09:16:24.481Z,100832.47
2022-12-19T09:18:53.803Z,100835.03
2022-12-19T09:21:22.891Z,100823.84
2022-12-19T09:23:51.416Z,100826.63
2022-12-19T09:26:19.290Z,100821.53
2022-12-19T09:28:46.542Z,100827.69
2022-12-19T09:31:15.890Z,100827.56
2022-12-19T09:33:44.000Z,100824.31
2022-12-19T09:36:19.970Z,100820.34
2022-12-19T09:38:47.232Z,100820.56
2022-12-19T09:41:13.488Z,100831.06
2022-12-19T09:43:50.676Z,100827.31
2022-12-19T09:46:18.119Z,100827.19
2022-12-19T09:48:55.189Z,100840.84
2022-12-19T09:51:38.120Z,100826.63
2022-12-19T09:54:16.400Z,100823.53
2022-12-19T09:56:45.596Z,100823.06
2022-12-19T09:59:41.585Z,100826.53
2022-12-19T10:02:40.876Z,100815.97
2022-12-19T10:06:15.095Z,100811.31
2022-12-19T10:08:18.984Z,100820.75
2022-12-19T10:12:46.511Z,100827.03
2022-12-19T10:14:05.041Z,100823.38
2022-12-19T10:17:22.646Z,100821.41
2022-12-19T10:20:01.265Z,100807.75
2022-12-19T10:22:37.578Z,100806.59
2022-12-19T10:25:25.618Z,100811.47
2022-12-19T10:28:05.909Z,100809.22
2022-12-19T10:30:44.979Z,100810.50
2022-12-19T10:33:35.850Z,100810.06
2022-12-19T10:36:08.568Z,100803.53
2022-12-19T10:38:51.346Z,100806.78
2022-12-19T10:41:25.726Z,100814.78
2022-12-19T10:43:55.013Z,100803.97
2022-12-19T10:46:48.869Z,100800.09
2022-12-19T10:49:21.177Z,100792.63
2022-12-19T10:52:01.124Z,100793.56
2022-12-19T10:54:36.282Z,100793.38
2022-12-19T10:57:22.460Z,100796.16
2022-12-19T11:00:05.945Z,100793.91
2022-12-19T11:02:47.961Z,100793.66
2022-12-19T11:05:23.363Z,100786.59
2022-12-19T11:08:01.912Z,100788.81
2022-12-19T11:13:01.009Z,100779.78
2022-12-19T11:18:56.494Z,100786.16
2022-12-19T11:20:47.855Z,100790.53
2022-12-19T11:29:18.755Z,100778.50
2022-12-19T11:29:30.007Z,100774.75
2022-12-19T11:30:42.815Z,100764.97
2022-12-19T11:30:43.935Z,100756.81
2022-12-19T11:32:31.872Z,100772.75
2022-12-19T11:34:19.144Z,100766.91
2022-12-19T11:37:11.921Z,100752.44
2022-12-19T11:39:53.833Z,100759.06
2022-12-19T11:42:26.175Z,100754.97
2022-12-19T11:45:11.717Z,100749.88
2022-12-19T11:47:44.668Z,100750.34
2022-12-19T11:50:34.892Z,100753.84
2022-12-19T11:53:19.219Z,100754.41
2022-12-19T11:55:51.506Z,100754.97
2022-12-19T11:58:17.857Z,100751.72
2022-12-19T12:00:53.847Z,100754.75
2022-12-19T12:03:49.523Z,100754.09
2022-12-19T12:06:33.258Z,100747.41
2022-12-19T12:11:40.006Z,100748.41
2022-12-19T12:20:08.977Z,100753.59
2022-12-19T12:28:38.046Z,100751.16
2022-12-19T12:31:05.780Z,100747.09
2022-12-19T12:31:22.780Z,100761.09
2022-12-19T12:31:48.870Z,100760.34
2022-12-19T12:32:05.784Z,100765.09
2022-12-19T12:35:38.052Z,100766.47
2022-12-19T12:38:18.740Z,100767.03
2022-12-19T12:40:58.853Z,100761.41
2022-12-19T12:43:37.063Z,100765.50
2022-12-19T12:46:04.940Z,100770.38
2022-12-19T12:48:42.580Z,100772.38
2022-12-19T12:51:10.313Z,100763.53
2022-12-19T12:53:40.622Z,100761.16
2022-12-19T12:56:10.196Z,100754.75
2022-12-19T12:58:46.591Z,100746.19
2022-12-19T13:01:20.148Z,100749.53
2022-12-19T13:04:04.517Z,100750.75
2022-12-19T13:06:35.342Z,100731.69
2022-12-19T13:09:20.043Z,100737.34
2022-12-19T13:11:55.144Z,100749.38
2022-12-19T13:14:36.792Z,100757.19
2022-12-19T13:17:05.315Z,100758.81
2022-12-19T13:19:34.057Z,100751.00
2022-12-19T13:22:03.447Z,100750.50
2022-12-19T13:24:40.242Z,100740.66
2022-12-19T13:27:18.777Z,100740.59
2022-12-19T13:30:00.410Z,100745.22
2022-12-19T13:32:31.928Z,100738.31
2022-12-19T13:35:13.495Z,100744.09
2022-12-19T13:40:01.457Z,100739.75
2022-12-19T13:41:30.173Z,100737.16
2022-12-19T13:43:59.778Z,100739.63
2022-12-19T13:46:41.222Z,100727.88
2022-12-19T13:49:29.655Z,100729.19
2022-12-19T13:52:00.808Z,100722.25
2022-12-19T13:54:36.301Z,100728.38
2022-12-19T13:57:09.288Z,100727.41
2022-12-19T13:59:38.811Z,100726.00
2022-12-19T14:02:17.843Z,100730.97
2022-12-19T14:04:45.409Z,100727.63
2022-12-19T14:07:41.071Z,100727.88
2022-12-19T14:11:34.975Z,100734.22
2022-12-19T14:14:01.509Z,100722.69
2022-12-19T14:15:52.340Z,100717.31
2022-12-19T14:18:42.489Z,100718.13
2022-12-19T14:22:05.620Z,100706.72
2022-12-19T14:24:15.926Z,100711.19
2022-12-19T14:28:23.599Z,100707.56
2022-12-19T14:30:19.436Z,100698.75
2022-12-19T14:33:40.835Z,100704.88
2022-12-19T14:36:10.977Z,100700.88
2022-12-19T14:39:21.131Z,100701.91
2022-12-19T14:41:07.929Z,100690.63
2022-12-19T14:44:00.310Z,100702.88
2022-12-19T14:51:42.361Z,100693.75
2022-12-19T14:54:07.106Z,100691.66
2022-12-19T14:54:24.628Z,100685.56
2022-12-19T14:56:04.139Z,100687.13
2022-12-19T14:58:55.865Z,100692.47
2022-12-19T15:01:10.131Z,100679.13
2022-12-19T15:03:46.368Z,100676.78
2022-12-19T15:07:06.620Z,100680.16
2022-12-19T15:11:02.548Z,100677.50
2022-12-19T15:14:49.362Z,100675.72
2022-12-19T15:15:18.526Z,100681.56
2022-12-19T15:17:48.059Z,100667.34
2022-12-19T15:20:14.899Z,100671.41
2022-12-19T15:22:41.352Z,100671.41
2022-12-19T15:25:35.809Z,100663.91
2022-12-19T15:28:02.001Z,100670.81
2022-12-19T15:30:32.794Z,100671.47
2022-12-19T15:32:59.126Z,100668.34
2022-12-19T15:35:25.472Z,100666.84
2022-12-19T15:37:51.815Z,100658.47
2022-12-19T15:40:18.663Z,100663.25
2022-12-19T15:42:52.108Z,100649.84
2022-12-19T15:45:18.525Z,100655.69
2022-12-19T15:47:45.397Z,100657.41
2022-12-19T15:50:30.031Z,100655.94
2022-12-19T15:52:58.675Z,100637.88
2022-12-19T15:55:29.052Z,100639.50
2022-12-19T15:57:58.720Z,100638.19
2022-12-19T16:00:28.525Z,100641.59
2022-12-19T16:05:42.114Z,100647.19
2022-12-19T16:08:13.359Z,100635.75
2022-12-19T16:10:41.592Z,100647.28
2022-12-19T16:13:18.376Z,100655.22
2022-12-19T16:15:44.837Z,100651.59
2022-12-19T16:18:13.213Z,100641.13
2022-12-19T16:20:41.172Z,100633.13
2022-12-19T16:23:09.516Z,100632.59
2022-12-19T16:25:44.461Z,100621.13
2022-12-19T16:28:39.169Z,100619.13
2022-12-19T16:31:16.193Z,100619.44
2022-12-19T16:33:42.612Z,100602.78
2022-12-19T16:36:09.576Z,100600.00
2022-12-19T16:38:36.178Z,100588.78
2022-12-19T16:41:02.832Z,100593.34
2022-12-19T16:43:36.912Z,100589.59
2022-12-19T16:46:06.551Z,100584.06
2022-12-19T16:48:33.060Z,100593.44
2022-12-19T16:50:59.497Z,100588.34
2022-12-19T16:53:26.113Z,100594.34
2022-12-19T16:55:54.169Z,100597.41
2022-12-19T16:58:23.152Z,100597.63
2022-12-19T17:00:51.254Z,100584.53
2022-12-19T17:03:40.027Z,100601.47
2022-12-19T17:06:06.949Z,100597.91
2022-12-19T17:08:33.362Z,100599.75
2022-12-19T17:10:59.725Z,100607.19
2022-12-19T17:13:26.446Z,100602.72
2022-12-19T17:15:56.646Z,100608.09
2022-12-19T17:18:42.443Z,100609.41
2022-12-19T17:21:17.737Z,100615.53
2022-12-19T17:23:44.263Z,100630.13
2022-12-19T17:26:15.874Z,100652.88
2022-12-19T17:28:44.205Z,100655.44
2022-12-19T17:31:24.029Z,100675.03
2022-12-19T17:33:50.620Z,100672.97
2022-12-19T17:36:23.054Z,100658.91
2022-12-19T17:38:51.377Z,100640.72
2022-12-19T17:41:17.720Z,100646.44
2022-12-19T17:43:44.178Z,100664.22
2022-12-19T17:46:19.398Z,100660.31
2022-12-19T17:48:48.269Z,100652.19
2022-12-19T17:51:14.629Z,100649.44
2022-12-19T17:53:40.960Z,100637.91
2022-12-19T17:56:15.117Z,100642.38
2022-12-19T17:58:41.561Z,100629.94
2022-12-19T18:01:19.335Z,100627.34
2022-12-19T18:03:46.974Z,100642.63
2022-12-19T18:06:13.360Z,100639.47
2022-12-19T18:08:39.983Z,100637.06
2022-12-19T18:11:17.296Z,100648.22
2022-12-19T18:13:43.672Z,100646.88
2022-12-19T18:16:12.288Z,100640.34
2022-12-19T18:18:39.137Z,100639.22
2022-12-19T18:21:05.717Z,100638.56
2022-12-19T18:23:32.672Z,100639.22
2022-12-19T18:26:01.921Z,100637.06
2022-12-19T18:28:29.586Z,100630.59
2022-12-19T18:31:02.359Z,100626.84
2022-12-19T18:33:36.661Z,100638.66
2022-12-19T18:36:04.720Z,100631.41
2022-12-19T18:38:31.053Z,100642.06
2022-12-19T18:40:57.385Z,100646.34
2022-12-19T18:43:23.759Z,100658.38
2022-12-19T18:45:53.596Z,100655.59
2022-12-19T18:48:26.075Z,100661.97
2022-12-19T18:50:54.048Z,100667.69
2022-12-19T18:53:21.809Z,100651.50
2022-12-19T18:55:48.767Z,100658.81
2022-12-19T18:58:15.131Z,100661.00
2022-12-19T19:00:41.945Z,100649.78
2022-12-19T19:03:14.515Z,100651.09
2022-12-19T19:05:41.772Z,100644.59
2022-12-19T19:08:21.942Z,100652.06
2022-12-19T19:10:50.402Z,100656.28
2022-12-19T19:13:18.320Z,100652.72
2022-12-19T19:16:13.143Z,100661.66
2022-12-19T19:18:41.196Z,100661.47
2022-12-19T19:21:10.986Z,100658.47
2022-12-19T19:23:41.670Z,100651.72
2022-12-19T19:26:08.022Z,100647.19
2022-12-19T19:28:34.393Z,100653.94
2022-12-19T19:31:01.327Z,100651.59
2022-12-19T19:33:35.648Z,100644.03
2022-12-19T19:36:11.955Z,100647.25
2022-12-19T19:38:41.888Z,100658.56
2022-12-19T19:41:08.239Z,100660.84
2022-12-19T19:43:35.462Z,100664.41
2022-12-19T19:46:02.375Z,100674.16
2022-12-19T19:48:28.854Z,100666.31
2022-12-19T19:50:55.166Z,100664.34
2022-12-19T19:53:21.501Z,100667.13
2022-12-19T19:55:57.825Z,100658.84
2022-12-19T19:58:24.223Z,100664.50
2022-12-19T20:00:50.573Z,100666.19
2022-12-19T20:03:22.579Z,100669.34
2022-12-19T20:05:50.236Z,100658.34
2022-12-19T20:08:16.675Z,100664.03
2022-12-19T20:10:43.070Z,100670.06
2022-12-19T20:13:09.460Z,100664.97
2022-12-19T20:15:35.816Z,100662.56
2022-12-19T20:18:02.608Z,100667.84
2022-12-19T20:20:28.931Z,100665.38
2022-12-19T20:22:55.272Z,100668.66
2022-12-19T20:25:21.661Z,100667.69
2022-12-19T20:27:48.029Z,100662.25
2022-12-19T20:30:14.541Z,100678.78
2022-12-19T20:32:40.913Z,100686.25
2022-12-19T20:35:13.976Z,100689.25
2022-12-19T20:37:41.033Z,100687.22
2022-12-19T20:40:08.607Z,100686.81
2022-12-19T20:42:34.977Z,100693.66
2022-12-19T20:45:01.367Z,100685.47
2022-12-19T20:47:28.057Z,100679.09
2022-12-19T20:49:54.371Z,100678.72
2022-12-19T20:52:20.702Z,100682.69
2022-12-19T20:54:47.005Z,100687.19
2022-12-19T20:57:13.365Z,100677.53
2022-12-19T20:59:39.717Z,100682.97
2022-12-19T21:02:06.577Z,100682.84
2022-12-19T21:04:33.340Z,100690.63
2022-12-19T21:06:59.831Z,100694.03
2022-12-19T21:09:26.261Z,100701.22
2022-12-19T21:11:52.637Z,100703.41
2022-12-19T21:14:19.037Z,100697.72
2022-12-19T21:16:45.509Z,100700.38
2022-12-19T21:19:11.872Z,100702.03
2022-12-19T21:21:38.243Z,100695.22
2022-12-19T21:24:04.863Z,100683.94
2022-12-19T21:26:31.188Z,100679.66
2022-12-19T21:28:57.587Z,100685.69
2022-12-19T21:31:27.360Z,100668.88
2022-12-19T21:33:55.752Z,100674.13
2022-12-19T21:36:23.290Z,100678.91
2022-12-19T21:38:53.031Z,100672.16
2022-12-19T21:41:19.799Z,100673.59
2022-12-19T21:43:47.544Z,100671.34
2022-12-19T21:46:15.646Z,100667.09
2022-12-19T21:48:45.258Z,100662.91
2022-12-19T21:51:12.663Z,100667.72
2022-12-19T21:53:39.457Z,100667.78
2022-12-19T21:56:27.492Z,100669.81
2022-12-19T21:58:57.862Z,100672.94
2022-12-19T22:01:24.927Z,100677.03
2022-12-19T22:03:52.216Z,100678.91
2022-12-19T22:06:27.793Z,100680.53
2022-12-19T22:08:55.425Z,100668.97
2022-12-19T22:11:22.298Z,100665.97
2022-12-19T22:13:49.287Z,100660.53
2022-12-19T22:16:16.919Z,100642.72
2022-12-19T22:18:43.509Z,100647.72
2022-12-19T22:21:14.951Z,100645.91
2022-12-19T22:23:42.207Z,100650.50
2022-12-19T22:26:12.374Z,100640.88
2022-12-19T22:28:40.654Z,100639.19
2022-12-19T22:31:19.685Z,100636.75
2022-12-19T22:33:47.259Z,100635.81
2022-12-19T22:36:15.504Z,100638.50
2022-12-19T22:38:44.008Z,100649.63
2022-12-19T22:41:11.231Z,100642.88
2022-12-19T22:43:38.976Z,100651.28
2022-12-19T22:46:14.295Z,100648.22
2022-12-19T22:48:40.683Z,100644.09
2022-12-19T22:51:07.554Z,100635.88
2022-12-19T22:53:35.354Z,100643.56
2022-12-19T22:56:22.948Z,100635.28
2022-12-19T22:58:52.004Z,100626.78
2022-12-19T23:01:19.790Z,100636.28
2022-12-19T23:03:47.746Z,100631.47
2022-12-19T23:06:14.902Z,100625.59
2022-12-19T23:08:41.372Z,100624.38
2022-12-19T23:11:14.716Z,100630.34
2022-12-19T23:13:41.596Z,100637.16
2022-12-19T23:16:09.092Z,100627.72
2022-12-19T23:18:35.731Z,100637.06
2022-12-19T23:21:23.159Z,100621.75
2022-12-19T23:23:51.955Z,100622.84
2022-12-19T23:26:31.311Z,100621.31
2022-12-19T23:29:00.077Z,100621.63
2022-12-19T23:31:27.832Z,100631.03
2022-12-19T23:33:54.872Z,100626.22
2022-12-19T23:36:45.104Z,100616.06
2022-12-19T23:39:07.914Z,100624.81
2022-12-19T23:41:34.243Z,100611.09
2022-12-19T23:44:00.706Z,100614.06
2022-12-19T23:46:27.910Z,100606.91
2022-12-19T23:48:55.015Z,100611.50
2022-12-19T23:51:24.341Z,100610.25
2022-12-19T23:53:51.752Z,100598.13
2022-12-19T23:56:23.947Z,100596.56
2022-12-19T23:58:50.330Z,100597.13
